createdAt,value
2023-01-07T00:01:35.033Z,13.27
2023-01-07T00:06:42.868Z,12.57
2023-01-07T00:11:48.202Z,21.10
2023-01-07T00:16:53.288Z,12.68
2023-01-07T00:21:57.242Z,17.80
2023-01-07T00:27:03.106Z,12.75
2023-01-07T00:32:08.794Z,12.75
2023-01-07T00:37:29.763Z,12.52
2023-01-07T00:42:52.444Z,16.25
2023-01-07T00:47:57.978Z,11.48
2023-01-07T00:53:03.965Z,12.63
2023-01-07T00:58:15.395Z,26.70
2023-01-07T01:09:09.184Z,20.77
2023-01-07T01:14:14.593Z,19.83
2023-01-07T01:19:18.583Z,16.17
2023-01-07T01:24:22.534Z,12.30
2023-01-07T01:29:28.272Z,10.63
2023-01-07T01:34:33.288Z,18.25
2023-01-07T01:39:37.339Z,14.20
2023-01-07T01:44:49.654Z,15.70
2023-01-07T01:50:15.128Z,10.27
2023-01-07T01:55:28.817Z,13.23
2023-01-07T02:00:36.807Z,12.95
2023-01-07T02:05:43.796Z,10.68
2023-01-07T02:10:49.661Z,16.00
2023-01-07T02:16:04.082Z,9.05
2023-01-07T02:21:22.008Z,6.72
2023-01-07T02:27:01.655Z,9.45
2023-01-07T02:32:19.746Z,8.38
2023-01-07T02:37:32.774Z,13.05
2023-01-07T02:42:49.864Z,8.25
2023-01-07T02:47:59.042Z,15.05
2023-01-07T02:53:03.098Z,10.75
2023-01-07T02:58:46.684Z,13.65
2023-01-07T03:04:08.079Z,12.63
2023-01-07T03:09:17.368Z,12.30
2023-01-07T03:19:33.983Z,25.17
2023-01-07T03:24:41.234Z,40.23
2023-01-07T03:29:45.961Z,28.13
2023-01-07T03:34:52.281Z,28.92
2023-01-07T03:39:57.375Z,36.30
2023-01-07T03:45:02.358Z,35.35
2023-01-07T03:50:12.011Z,19.55
2023-01-07T03:55:19.919Z,26.70
2023-01-07T04:00:26.708Z,18.10
2023-01-07T04:05:38.907Z,16.52
2023-01-07T04:10:43.245Z,18.60
2023-01-07T04:15:49.220Z,14.23
2023-01-07T04:20:54.694Z,9.52
2023-01-07T04:25:58.744Z,15.00
2023-01-07T04:31:03.899Z,15.32
2023-01-07T04:36:13.380Z,16.42
2023-01-07T04:41:18.076Z,54.08
2023-01-07T04:46:25.484Z,36.67
2023-01-07T04:51:32.039Z,32.15
2023-01-07T04:56:36.820Z,41.88
2023-01-07T05:01:41.808Z,43.40
2023-01-07T05:06:48.067Z,24.73
2023-01-07T05:11:53.141Z,17.40
2023-01-07T05:16:57.966Z,10.73
2023-01-07T05:22:06.512Z,40.58
2023-01-07T05:27:15.374Z,22.23
2023-01-07T05:32:20.109Z,31.27
2023-01-07T05:37:27.066Z,57.00
2023-01-07T05:42:32.849Z,27.92
2023-01-07T05:47:37.619Z,17.15
2023-01-07T05:52:44.131Z,11.02
2023-01-07T05:57:48.045Z,22.10
2023-01-07T06:02:52.293Z,63.38
2023-01-07T06:07:57.810Z,29.42
2023-01-07T06:13:02.154Z,25.63
2023-01-07T06:18:06.495Z,31.52
2023-01-07T06:23:12.332Z,26.80
2023-01-07T06:28:16.477Z,37.85
2023-01-07T06:33:20.878Z,36.80
2023-01-07T06:38:26.491Z,59.80
2023-01-07T06:43:30.869Z,65.30
2023-01-07T06:48:35.584Z,34.20
2023-01-07T06:53:41.009Z,97.38
2023-01-07T06:58:45.052Z,26.88
2023-01-07T07:03:49.052Z,32.50
2023-01-07T07:08:54.558Z,23.90
2023-01-07T07:14:00.238Z,28.92
2023-01-07T07:19:04.221Z,41.08
2023-01-07T07:24:09.778Z,52.63
2023-01-07T07:29:13.968Z,81.03
2023-01-07T07:34:18.075Z,46.47
2023-01-07T07:39:23.491Z,34.05
2023-01-07T07:44:28.036Z,24.98
2023-01-07T07:49:33.231Z,21.58
2023-01-07T07:54:38.912Z,55.90
2023-01-07T07:59:43.081Z,34.15
2023-01-07T08:04:47.484Z,24.48
2023-01-07T08:09:52.951Z,21.83
2023-01-07T08:14:56.920Z,23.75
2023-01-07T08:20:01.241Z,49.25
2023-01-07T08:25:08.565Z,41.17
2023-01-07T08:30:13.278Z,33.72
2023-01-07T08:35:17.975Z,33.13
2023-01-07T08:40:23.718Z,52.42
2023-01-07T08:45:28.771Z,37.17
2023-01-07T08:50:34.528Z,29.00
2023-01-07T08:55:40.506Z,26.92
2023-01-07T09:00:44.822Z,38.22
2023-01-07T09:05:50.732Z,31.88
2023-01-07T09:11:00.429Z,24.75
2023-01-07T09:16:04.515Z,23.92
2023-01-07T09:21:08.622Z,18.52
2023-01-07T09:26:14.187Z,18.88
2023-01-07T09:31:18.501Z,14.00
2023-01-07T09:36:22.587Z,14.15
2023-01-07T09:41:40.371Z,13.73
2023-01-07T09:46:46.830Z,4.57
2023-01-07T09:51:57.138Z,5.40
2023-01-07T09:57:03.209Z,7.45
2023-01-07T10:02:23.346Z,6.20
2023-01-07T10:07:35.931Z,7.28
2023-01-07T10:12:47.237Z,13.45
2023-01-07T10:18:07.928Z,5.70
2023-01-07T10:23:16.763Z,3.60
2023-01-07T10:28:29.364Z,3.38
2023-01-07T10:33:35.091Z,9.18
2023-01-07T10:38:43.887Z,8.13
2023-01-07T10:44:02.083Z,4.22
2023-01-07T10:49:20.501Z,7.25
2023-01-07T10:54:40.727Z,10.30
2023-01-07T10:59:51.622Z,8.50
2023-01-07T11:05:00.439Z,6.22
2023-01-07T11:10:14.672Z,4.32
2023-01-07T11:15:30.629Z,6.03
2023-01-07T11:20:49.997Z,4.75
2023-01-07T11:31:04.648Z,19.83
2023-01-07T11:36:11.254Z,3.10
2023-01-07T11:41:28.613Z,6.07
2023-01-07T11:46:34.978Z,6.07
2023-01-07T11:51:43.396Z,5.10
2023-01-07T11:56:55.389Z,9.40
2023-01-07T12:02:25.845Z,5.65
2023-01-07T12:07:34.073Z,6.18
2023-01-07T12:12:48.720Z,3.45
2023-01-07T12:18:20.311Z,3.40
2023-01-07T12:23:49.086Z,3.03
2023-01-07T12:29:09.921Z,9.50
2023-01-07T12:34:32.722Z,12.00
2023-01-07T12:39:42.754Z,17.27
2023-01-07T12:44:55.724Z,4.43
2023-01-07T12:50:07.259Z,5.63
2023-01-07T12:55:24.837Z,5.50
2023-01-07T13:00:33.636Z,7.85
2023-01-07T13:05:47.436Z,10.02
2023-01-07T13:11:06.548Z,2.65
2023-01-07T13:16:14.812Z,8.25
2023-01-07T13:21:24.585Z,6.28
2023-01-07T13:26:43.135Z,12.43
2023-01-07T13:32:07.823Z,20.13
2023-01-07T13:37:40.503Z,14.43
2023-01-07T13:42:52.635Z,22.70
2023-01-07T13:48:01.436Z,14.68
2023-01-07T13:53:11.538Z,36.15
2023-01-07T13:58:53.925Z,34.17
2023-01-07T14:04:24.163Z,12.00
2023-01-07T14:09:50.356Z,18.98
2023-01-07T14:15:21.292Z,37.13
2023-01-07T14:20:34.826Z,49.17
2023-01-07T14:25:53.121Z,96.00
2023-01-07T14:31:07.680Z,45.78
2023-01-07T14:36:21.463Z,28.98
2023-01-07T14:41:27.500Z,17.02
2023-01-07T14:46:49.739Z,8.27
2023-01-07T14:52:03.792Z,11.43
2023-01-07T14:57:26.864Z,10.35
2023-01-07T15:03:22.747Z,11.45
2023-01-07T15:09:06.568Z,20.25
2023-01-07T15:14:43.555Z,43.22
2023-01-07T15:19:49.193Z,21.20
2023-01-07T15:25:01.490Z,44.60
2023-01-07T15:30:27.820Z,63.42
2023-01-07T15:35:46.125Z,104.78
2023-01-07T15:40:54.146Z,98.32
2023-01-07T15:46:07.694Z,103.13
2023-01-07T15:51:18.979Z,113.03
2023-01-07T15:56:27.483Z,104.30
2023-01-07T16:01:34.271Z,97.47
2023-01-07T16:06:47.079Z,85.63
2023-01-07T16:11:54.799Z,56.60
2023-01-07T16:17:14.527Z,65.30
2023-01-07T16:27:33.028Z,56.60
2023-01-07T16:32:43.391Z,38.00
2023-01-07T16:37:50.777Z,56.22
2023-01-07T16:42:56.248Z,63.47
2023-01-07T16:48:27.412Z,67.35
2023-01-07T16:53:36.118Z,53.85
2023-01-07T16:58:53.857Z,33.97
2023-01-07T17:04:11.386Z,41.17
2023-01-07T17:09:22.601Z,47.13
2023-01-07T17:14:49.912Z,31.20
2023-01-07T17:20:05.873Z,28.83
2023-01-07T17:25:16.241Z,31.83
2023-01-07T17:30:24.305Z,46.33
2023-01-07T17:35:46.508Z,99.30
2023-01-07T17:40:55.050Z,71.50
2023-01-07T17:46:03.048Z,61.85
2023-01-07T17:51:09.342Z,21.20
2023-01-07T17:56:14.115Z,31.02
2023-01-07T18:01:21.330Z,33.22
2023-01-07T18:06:34.986Z,38.63
2023-01-07T18:11:58.538Z,38.25
2023-01-07T18:17:02.609Z,63.78
2023-01-07T18:22:08.224Z,109.70
2023-01-07T18:27:15.253Z,81.30
2023-01-07T18:32:19.880Z,42.72
2023-01-07T18:37:25.674Z,34.88
2023-01-07T18:42:30.797Z,22.13
2023-01-07T18:47:38.250Z,20.02
2023-01-07T18:52:45.339Z,15.85
2023-01-07T18:57:50.337Z,21.15
2023-01-07T19:02:55.127Z,40.05
2023-01-07T19:08:01.865Z,25.08
2023-01-07T19:13:07.152Z,15.88
2023-01-07T19:18:11.932Z,28.98
2023-01-07T19:23:18.939Z,38.83
2023-01-07T19:28:23.377Z,28.45
2023-01-07T19:33:28.199Z,40.72
2023-01-07T19:38:40.432Z,25.98
2023-01-07T19:43:46.548Z,22.25
2023-01-07T19:48:51.513Z,26.40
2023-01-07T19:54:01.176Z,21.48
2023-01-07T19:59:06.126Z,24.60
2023-01-07T20:04:11.608Z,67.15
2023-01-07T20:09:19.839Z,70.60
2023-01-07T20:14:25.124Z,53.78
2023-01-07T20:19:31.906Z,38.08
2023-01-07T20:24:38.642Z,40.05
2023-01-07T20:29:47.429Z,37.80
2023-01-07T20:40:12.379Z,55.92
2023-01-07T20:45:20.846Z,83.97
2023-01-07T20:50:27.231Z,97.13
2023-01-07T20:55:34.236Z,79.90
2023-01-07T21:00:41.754Z,90.40
2023-01-07T21:05:50.388Z,48.67
2023-01-07T21:10:59.644Z,40.33
2023-01-07T21:16:09.103Z,50.95
2023-01-07T21:21:20.711Z,42.15
2023-01-07T21:26:31.490Z,36.72
2023-01-07T21:31:39.505Z,33.75
2023-01-07T21:36:44.474Z,17.40
2023-01-07T21:41:52.417Z,25.40
2023-01-07T21:47:22.931Z,14.38
2023-01-07T21:52:29.545Z,22.38
2023-01-07T21:57:39.819Z,21.67
2023-01-07T22:02:48.440Z,32.00
2023-01-07T22:07:57.698Z,19.87
2023-01-07T22:13:04.128Z,27.95
2023-01-07T22:18:11.556Z,18.67
2023-01-07T22:23:18.117Z,52.80
2023-01-07T22:28:25.197Z,58.22
2023-01-07T22:33:29.152Z,32.53
2023-01-07T22:38:33.977Z,30.42
2023-01-07T22:43:44.387Z,57.50
2023-01-07T22:48:48.808Z,50.20
2023-01-07T22:53:56.068Z,32.40
2023-01-07T22:59:01.829Z,21.83
2023-01-07T23:04:06.226Z,23.02
2023-01-07T23:09:10.349Z,28.08
2023-01-07T23:14:15.818Z,34.25
2023-01-07T23:19:22.188Z,24.90
2023-01-07T23:24:26.434Z,26.40
2023-01-07T23:29:31.839Z,26.52
2023-01-07T23:34:35.787Z,20.92
2023-01-07T23:39:39.951Z,12.57
2023-01-07T23:44:47.803Z,17.08
2023-01-07T23:49:51.794Z,19.10
2023-01-07T23:54:55.816Z,21.27
